createdAt,value
2022-11-07T00:00:10.381Z,11.50
2022-11-07T00:02:37.316Z,11.48
2022-11-07T00:05:04.664Z,11.52
2022-11-07T00:07:31.530Z,11.58
2022-11-07T00:09:58.319Z,11.51
2022-11-07T00:12:25.095Z,11.48
2022-11-07T00:14:52.016Z,11.47
2022-11-07T00:17:18.967Z,11.47
2022-11-07T00:19:45.986Z,11.52
2022-11-07T00:22:12.887Z,11.47
2022-11-07T00:24:39.666Z,11.45
2022-11-07T00:27:06.503Z,11.50
2022-11-07T00:29:33.395Z,11.45
2022-11-07T00:32:00.236Z,11.45
2022-11-07T00:34:27.131Z,11.43
2022-11-07T00:36:54.049Z,11.41
2022-11-07T00:39:20.867Z,11.43
2022-11-07T00:41:49.452Z,11.42
2022-11-07T00:44:16.658Z,11.48
2022-11-07T00:46:43.625Z,11.50
2022-11-07T00:49:10.567Z,11.50
2022-11-07T00:51:37.465Z,11.52
2022-11-07T00:54:05.041Z,11.45
2022-11-07T00:56:31.955Z,11.53
2022-11-07T00:59:00.194Z,11.53
2022-11-07T01:01:30.453Z,11.52
2022-11-07T01:04:16.335Z,11.42
2022-11-07T01:06:45.011Z,11.46
2022-11-07T01:09:15.630Z,11.56
2022-11-07T01:11:43.937Z,11.51
2022-11-07T01:14:12.161Z,11.45
2022-11-07T01:16:39.091Z,11.47
2022-11-07T01:19:07.097Z,11.36
2022-11-07T01:21:34.705Z,11.45
2022-11-07T01:24:03.650Z,11.43
2022-11-07T01:26:30.597Z,11.46
2022-11-07T01:28:57.604Z,11.45
2022-11-07T01:31:24.613Z,11.38
2022-11-07T01:33:51.565Z,11.28
2022-11-07T01:36:18.892Z,11.35
2022-11-07T01:38:48.784Z,11.40
2022-11-07T01:41:22.844Z,11.47
2022-11-07T01:43:52.356Z,11.45
2022-11-07T01:46:20.375Z,11.42
2022-11-07T01:48:56.305Z,11.48
2022-11-07T01:51:24.113Z,11.51
2022-11-07T01:53:52.907Z,11.46
2022-11-07T01:56:23.135Z,11.54
2022-11-07T01:58:50.365Z,11.49
2022-11-07T02:01:17.995Z,11.49
2022-11-07T02:03:47.225Z,11.42
2022-11-07T02:06:21.340Z,11.52
2022-11-07T02:08:51.435Z,11.56
2022-11-07T02:11:18.429Z,11.45
2022-11-07T02:13:45.420Z,11.47
2022-11-07T02:16:12.425Z,11.56
2022-11-07T02:18:42.158Z,11.50
2022-11-07T02:21:18.462Z,11.52
2022-11-07T02:23:55.543Z,11.47
2022-11-07T02:26:23.048Z,11.49
2022-11-07T02:28:51.945Z,11.52
2022-11-07T02:31:18.804Z,11.58
2022-11-07T02:33:45.797Z,11.52
2022-11-07T02:36:19.304Z,11.49
2022-11-07T02:38:49.885Z,11.49
2022-11-07T02:41:19.986Z,11.53
2022-11-07T02:43:52.945Z,11.44
2022-11-07T02:46:22.923Z,11.47
2022-11-07T02:48:54.055Z,11.45
2022-11-07T02:51:21.263Z,11.43
2022-11-07T02:53:48.164Z,11.33
2022-11-07T02:56:15.064Z,11.41
2022-11-07T02:58:42.365Z,11.40
2022-11-07T03:01:09.447Z,11.47
2022-11-07T03:03:48.298Z,11.50
2022-11-07T03:06:21.906Z,11.47
2022-11-07T03:08:49.025Z,11.41
2022-11-07T03:11:20.106Z,11.48
2022-11-07T03:13:51.164Z,11.45
2022-11-07T03:16:19.524Z,11.46
2022-11-07T03:18:46.412Z,11.46
2022-11-07T03:21:13.804Z,11.45
2022-11-07T03:23:40.594Z,11.44
2022-11-07T03:26:07.555Z,11.41
2022-11-07T03:28:34.544Z,11.41
2022-11-07T03:31:02.925Z,11.48
2022-11-07T03:33:31.026Z,11.49
2022-11-07T03:35:57.914Z,11.45
2022-11-07T03:38:24.698Z,11.46
2022-11-07T03:40:51.705Z,11.49
2022-11-07T03:43:18.601Z,11.45
2022-11-07T03:45:45.406Z,11.47
2022-11-07T03:48:12.245Z,11.43
2022-11-07T03:50:39.036Z,11.41
2022-11-07T03:53:05.843Z,11.49
2022-11-07T03:55:32.787Z,11.44
2022-11-07T03:57:59.540Z,11.41
2022-11-07T04:00:26.325Z,11.44
2022-11-07T04:02:53.319Z,11.44
2022-11-07T04:05:20.257Z,11.54
2022-11-07T04:07:47.045Z,11.54
2022-11-07T04:10:13.926Z,11.45
2022-11-07T04:12:59.150Z,11.42
2022-11-07T04:15:44.732Z,11.38
2022-11-07T04:18:11.576Z,11.40
2022-11-07T04:20:38.364Z,11.42
2022-11-07T04:23:05.276Z,11.53
2022-11-07T04:25:50.568Z,11.47
2022-11-07T04:28:18.122Z,11.41
2022-11-07T04:30:45.020Z,11.40
2022-11-07T04:33:12.538Z,11.43
2022-11-07T04:35:39.784Z,11.45
2022-11-07T04:38:06.566Z,11.39
2022-11-07T04:40:33.385Z,11.30
2022-11-07T04:43:00.265Z,11.40
2022-11-07T04:45:27.145Z,11.43
2022-11-07T04:47:54.076Z,11.46
2022-11-07T04:50:21.056Z,11.46
2022-11-07T04:52:48.818Z,11.40
2022-11-07T04:55:24.956Z,11.32
2022-11-07T04:57:52.472Z,11.35
2022-11-07T05:00:20.409Z,11.37
2022-11-07T05:02:48.434Z,11.30
2022-11-07T05:05:16.076Z,11.41
2022-11-07T05:07:46.591Z,11.46
2022-11-07T05:10:22.266Z,11.46
2022-11-07T05:12:49.116Z,11.45
2022-11-07T05:15:17.315Z,11.53
2022-11-07T05:17:44.585Z,11.41
2022-11-07T05:20:36.155Z,11.51
2022-11-07T05:23:13.860Z,11.52
2022-11-07T05:25:49.615Z,11.50
2022-11-07T05:28:38.795Z,11.48
2022-11-07T05:31:08.001Z,11.41
2022-11-07T05:33:35.911Z,11.36
2022-11-07T05:36:16.135Z,11.39
2022-11-07T05:38:45.624Z,11.29
2022-11-07T05:41:14.087Z,11.30
2022-11-07T05:43:41.057Z,11.34
2022-11-07T05:46:08.515Z,11.37
2022-11-07T05:48:36.092Z,11.37
2022-11-07T05:51:03.992Z,11.42
2022-11-07T05:53:30.952Z,11.40
2022-11-07T05:55:57.787Z,11.46
2022-11-07T05:58:24.864Z,11.49
2022-11-07T06:00:51.844Z,11.51
2022-11-07T06:03:21.778Z,11.52
2022-11-07T06:05:48.827Z,11.47
2022-11-07T06:08:15.861Z,11.53
2022-11-07T06:10:43.915Z,11.55
2022-11-07T06:13:14.778Z,11.66
2022-11-07T06:15:43.586Z,11.65
2022-11-07T06:18:19.556Z,11.65
2022-11-07T06:20:46.653Z,11.71
2022-11-07T06:23:14.232Z,11.77
2022-11-07T06:25:41.864Z,11.75
2022-11-07T06:28:11.291Z,11.75
2022-11-07T06:30:38.546Z,11.78
2022-11-07T06:33:08.101Z,11.81
2022-11-07T06:35:35.365Z,11.84
2022-11-07T06:38:07.559Z,11.82
2022-11-07T06:40:34.897Z,11.84
2022-11-07T06:43:19.534Z,11.76
2022-11-07T06:45:47.830Z,11.61
2022-11-07T06:48:15.089Z,11.80
2022-11-07T06:50:42.040Z,11.90
2022-11-07T06:53:11.735Z,11.90
2022-11-07T06:55:39.240Z,11.90
2022-11-07T06:58:06.811Z,11.93
2022-11-07T07:00:35.580Z,12.00
2022-11-07T07:03:02.764Z,12.06
2022-11-07T07:05:29.701Z,11.99
2022-11-07T07:07:56.738Z,12.06
2022-11-07T07:10:25.505Z,12.16
2022-11-07T07:12:56.814Z,12.19
2022-11-07T07:15:24.020Z,12.26
2022-11-07T07:17:50.866Z,12.19
2022-11-07T07:20:17.928Z,12.25
2022-11-07T07:22:48.129Z,12.32
2022-11-07T07:25:17.148Z,12.35
2022-11-07T07:27:43.969Z,12.38
2022-11-07T07:30:11.430Z,12.37
2022-11-07T07:32:38.486Z,12.46
2022-11-07T07:35:06.185Z,12.54
2022-11-07T07:37:33.262Z,12.54
2022-11-07T07:40:00.081Z,12.60
2022-11-07T07:42:26.980Z,12.44
2022-11-07T07:44:53.867Z,12.58
2022-11-07T07:47:20.718Z,12.57
2022-11-07T07:49:47.572Z,12.62
2022-11-07T07:52:14.365Z,12.54
2022-11-07T07:54:41.175Z,12.57
2022-11-07T07:57:08.077Z,12.48
2022-11-07T07:59:34.985Z,12.57
2022-11-07T08:02:01.949Z,12.68
2022-11-07T08:04:28.901Z,12.75
2022-11-07T08:06:55.798Z,12.80
2022-11-07T08:09:22.607Z,12.89
2022-11-07T08:11:49.460Z,12.97
2022-11-07T08:14:16.327Z,12.98
2022-11-07T08:16:43.233Z,13.03
2022-11-07T08:19:10.136Z,13.11
2022-11-07T08:21:36.986Z,13.17
2022-11-07T08:24:04.217Z,13.22
2022-11-07T08:26:31.618Z,13.35
2022-11-07T08:28:58.510Z,13.33
2022-11-07T08:31:25.548Z,13.20
2022-11-07T08:33:52.604Z,13.17
2022-11-07T08:36:19.521Z,13.10
2022-11-07T08:38:46.304Z,13.06
2022-11-07T08:41:14.623Z,13.14
2022-11-07T08:43:43.045Z,13.16
2022-11-07T08:46:09.914Z,13.21
2022-11-07T08:48:36.816Z,13.20
2022-11-07T08:51:03.923Z,13.29
2022-11-07T08:53:31.208Z,13.35
2022-11-07T08:56:05.805Z,13.33
2022-11-07T08:58:33.684Z,13.22
2022-11-07T09:01:01.116Z,13.13
2022-11-07T09:03:45.234Z,13.21
2022-11-07T09:06:15.169Z,13.36
2022-11-07T09:08:42.061Z,13.49
2022-11-07T09:11:09.196Z,13.53
2022-11-07T09:13:37.427Z,13.64
2022-11-07T09:16:06.003Z,13.68
2022-11-07T09:18:33.555Z,13.88
2022-11-07T09:21:00.456Z,13.74
2022-11-07T09:23:27.970Z,13.94
2022-11-07T09:25:55.360Z,14.09
2022-11-07T09:28:22.315Z,14.12
2022-11-07T09:30:54.367Z,14.26
2022-11-07T09:33:21.681Z,14.28
2022-11-07T09:35:48.576Z,14.39
2022-11-07T09:38:15.840Z,14.48
2022-11-07T09:40:50.328Z,14.27
2022-11-07T09:43:43.899Z,14.23
2022-11-07T09:46:28.712Z,14.16
2022-11-07T09:49:19.750Z,14.05
2022-11-07T09:51:56.563Z,13.93
2022-11-07T09:54:28.708Z,13.95
2022-11-07T09:56:58.141Z,14.04
2022-11-07T09:59:32.154Z,14.14
2022-11-07T10:01:59.470Z,14.15
2022-11-07T10:04:27.088Z,14.10
2022-11-07T10:06:56.967Z,14.14
2022-11-07T10:09:47.439Z,14.14
2022-11-07T10:12:26.370Z,14.10
2022-11-07T10:15:14.663Z,14.19
2022-11-07T10:17:53.890Z,14.30
2022-11-07T10:20:30.967Z,14.18
2022-11-07T10:23:16.222Z,14.25
2022-11-07T10:25:57.053Z,14.28
2022-11-07T10:28:29.805Z,14.23
2022-11-07T10:31:01.266Z,14.13
2022-11-07T10:33:40.140Z,14.17
2022-11-07T10:36:25.018Z,14.18
2022-11-07T10:38:53.269Z,14.12
2022-11-07T10:41:23.826Z,14.11
2022-11-07T10:43:57.240Z,14.16
2022-11-07T10:46:43.380Z,14.13
2022-11-07T10:49:22.930Z,14.19
2022-11-07T10:51:51.263Z,14.03
2022-11-07T10:54:28.692Z,14.04
2022-11-07T10:57:12.189Z,14.05
2022-11-07T11:00:20.728Z,14.07
2022-11-07T11:02:49.026Z,13.95
2022-11-07T11:05:40.762Z,13.97
2022-11-07T11:08:22.753Z,14.07
2022-11-07T11:10:50.412Z,14.10
2022-11-07T11:13:34.335Z,14.14
2022-11-07T11:16:24.809Z,14.16
2022-11-07T11:18:53.927Z,14.11
2022-11-07T11:21:20.965Z,14.09
2022-11-07T11:23:49.007Z,14.10
2022-11-07T11:26:36.817Z,14.14
2022-11-07T11:29:09.315Z,14.09
2022-11-07T11:31:48.369Z,14.03
2022-11-07T11:34:26.826Z,14.07
2022-11-07T11:37:16.678Z,14.10
2022-11-07T11:39:46.784Z,14.09
2022-11-07T11:42:54.100Z,14.01
2022-11-07T11:45:58.473Z,13.94
2022-11-07T11:48:33.519Z,13.87
2022-11-07T11:51:24.259Z,13.86
2022-11-07T11:53:51.215Z,13.75
2022-11-07T11:56:46.633Z,13.71
2022-11-07T11:59:22.689Z,13.71
2022-11-07T12:02:20.512Z,13.71
2022-11-07T12:05:21.352Z,13.76
2022-11-07T12:08:21.057Z,13.75
2022-11-07T12:11:03.580Z,13.73
2022-11-07T12:13:39.704Z,13.75
2022-11-07T12:16:53.674Z,13.81
2022-11-07T12:19:32.513Z,13.80
2022-11-07T12:22:05.134Z,13.74
2022-11-07T12:24:47.924Z,13.72
2022-11-07T12:27:37.921Z,13.65
2022-11-07T12:30:08.874Z,13.56
2022-11-07T12:33:13.799Z,13.54
2022-11-07T12:35:43.969Z,13.54
2022-11-07T12:38:35.813Z,13.64
2022-11-07T12:41:26.966Z,13.68
2022-11-07T12:44:25.374Z,13.72
2022-11-07T12:46:55.859Z,13.75
2022-11-07T12:49:57.546Z,13.73
2022-11-07T12:53:18.615Z,13.75
2022-11-07T12:55:50.354Z,13.76
2022-11-07T12:58:28.317Z,13.78
2022-11-07T13:00:56.265Z,13.80
2022-11-07T13:03:30.688Z,13.71
2022-11-07T13:06:15.359Z,13.84
2022-11-07T13:09:03.908Z,13.70
2022-11-07T13:11:56.399Z,13.71
2022-11-07T13:14:26.234Z,13.64
2022-11-07T13:16:58.885Z,13.69
2022-11-07T13:19:36.355Z,13.62
2022-11-07T13:22:16.185Z,13.64
2022-11-07T13:25:22.260Z,13.70
2022-11-07T13:27:57.918Z,13.67
2022-11-07T13:30:30.798Z,13.73
2022-11-07T13:32:59.582Z,13.62
2022-11-07T13:35:28.919Z,13.64
2022-11-07T13:38:08.363Z,13.68
2022-11-07T13:40:35.582Z,13.63
2022-11-07T13:43:23.654Z,13.67
2022-11-07T13:46:01.337Z,13.70
2022-11-07T13:48:46.524Z,13.66
2022-11-07T13:51:29.376Z,13.64
2022-11-07T13:54:29.053Z,13.60
2022-11-07T13:57:18.913Z,13.52
2022-11-07T13:59:54.995Z,13.42
2022-11-07T14:02:30.613Z,13.36
2022-11-07T14:05:19.106Z,13.32
2022-11-07T14:07:52.429Z,13.28
2022-11-07T14:10:42.844Z,13.22
2022-11-07T14:13:11.903Z,12.99
2022-11-07T14:15:50.533Z,13.03
2022-11-07T14:18:18.744Z,12.99
2022-11-07T14:20:51.286Z,13.13
2022-11-07T14:23:21.748Z,13.04
2022-11-07T14:26:03.671Z,12.99
2022-11-07T14:28:38.809Z,13.07
2022-11-07T14:31:08.461Z,13.08
2022-11-07T14:33:35.441Z,12.98
2022-11-07T14:36:06.417Z,12.95
2022-11-07T14:38:33.258Z,12.95
2022-11-07T14:41:02.034Z,12.97
2022-11-07T14:43:31.059Z,12.98
2022-11-07T14:46:12.408Z,12.96
2022-11-07T14:48:45.694Z,12.96
2022-11-07T14:51:15.563Z,12.92
2022-11-07T14:53:51.149Z,12.94
2022-11-07T14:56:22.672Z,12.95
2022-11-07T14:58:49.761Z,12.84
2022-11-07T15:01:31.845Z,12.91
2022-11-07T15:04:20.581Z,12.83
2022-11-07T15:06:47.404Z,12.88
2022-11-07T15:09:14.187Z,12.87
2022-11-07T15:11:44.141Z,12.70
2022-11-07T15:14:26.381Z,12.76
2022-11-07T15:16:54.317Z,12.79
2022-11-07T15:19:23.827Z,12.70
2022-11-07T15:22:03.332Z,12.69
2022-11-07T15:24:35.212Z,12.67
2022-11-07T15:27:06.340Z,12.65
2022-11-07T15:29:36.266Z,12.69
2022-11-07T15:32:16.097Z,12.69
2022-11-07T15:37:30.562Z,12.63
2022-11-07T15:39:57.353Z,12.45
2022-11-07T15:42:24.165Z,12.51
2022-11-07T15:44:51.066Z,12.57
2022-11-07T15:47:21.135Z,12.44
2022-11-07T15:49:48.065Z,12.47
2022-11-07T15:52:15.327Z,12.52
2022-11-07T15:54:42.102Z,12.46
2022-11-07T15:57:09.163Z,12.49
2022-11-07T15:59:37.453Z,12.48
2022-11-07T16:02:04.652Z,12.49
2022-11-07T16:04:34.247Z,12.51
2022-11-07T16:07:03.474Z,12.53
2022-11-07T16:09:33.090Z,12.59
2022-11-07T16:11:59.964Z,12.56
2022-11-07T16:14:44.540Z,12.59
2022-11-07T16:17:19.584Z,12.59
2022-11-07T16:19:46.473Z,12.60
2022-11-07T16:22:15.066Z,12.56
2022-11-07T16:24:42.118Z,12.54
2022-11-07T16:27:16.594Z,12.61
2022-11-07T16:29:44.433Z,12.58
2022-11-07T16:32:17.608Z,12.59
2022-11-07T16:34:45.492Z,12.53
2022-11-07T16:37:12.574Z,12.52
2022-11-07T16:39:39.446Z,12.48
2022-11-07T16:42:09.641Z,12.57
2022-11-07T16:44:36.474Z,12.53
2022-11-07T16:47:03.332Z,12.52
2022-11-07T16:49:33.817Z,12.57
2022-11-07T16:52:01.559Z,12.43
2022-11-07T16:54:28.366Z,12.49
2022-11-07T16:56:56.660Z,12.43
2022-11-07T16:59:24.766Z,12.49
2022-11-07T17:01:51.717Z,12.48
2022-11-07T17:04:19.573Z,12.53
2022-11-07T17:06:47.738Z,12.56
2022-11-07T17:09:20.553Z,12.56
2022-11-07T17:11:47.427Z,12.59
2022-11-07T17:14:14.333Z,12.55
2022-11-07T17:16:44.595Z,12.44
2022-11-07T17:19:15.948Z,12.38
2022-11-07T17:21:46.621Z,12.37
2022-11-07T17:24:13.992Z,12.34
2022-11-07T17:26:40.864Z,12.27
2022-11-07T17:29:12.279Z,12.40
2022-11-07T17:31:39.840Z,12.39
2022-11-07T17:34:06.780Z,12.35
2022-11-07T17:36:40.612Z,12.35
2022-11-07T17:39:12.286Z,12.34
2022-11-07T17:41:40.744Z,12.40
2022-11-07T17:44:07.934Z,12.41
2022-11-07T17:46:35.997Z,12.35
2022-11-07T17:49:09.213Z,12.40
2022-11-07T17:51:36.692Z,12.38
2022-11-07T17:54:04.383Z,12.34
2022-11-07T17:56:32.917Z,12.35
2022-11-07T17:59:03.315Z,12.42
2022-11-07T18:01:36.940Z,12.38
2022-11-07T18:04:05.314Z,12.40
2022-11-07T18:06:35.315Z,12.31
2022-11-07T18:09:02.946Z,12.29
2022-11-07T18:11:30.794Z,12.28
2022-11-07T18:13:59.705Z,12.29
2022-11-07T18:16:32.458Z,12.16
2022-11-07T18:19:01.165Z,12.24
2022-11-07T18:21:29.160Z,12.19
2022-11-07T18:23:56.754Z,12.16
2022-11-07T18:26:31.136Z,12.10
2022-11-07T18:29:02.692Z,12.11
2022-11-07T18:31:29.650Z,12.11
2022-11-07T18:34:04.320Z,12.08
2022-11-07T18:36:35.051Z,12.13
2022-11-07T18:39:07.356Z,12.04
2022-11-07T18:41:34.539Z,12.14
2022-11-07T18:44:04.817Z,12.14
2022-11-07T18:46:32.442Z,12.14
2022-11-07T18:49:00.103Z,12.19
2022-11-07T18:51:27.008Z,12.07
2022-11-07T18:53:54.745Z,11.99
2022-11-07T18:56:22.024Z,12.15
2022-11-07T18:58:49.028Z,12.20
2022-11-07T19:01:23.623Z,12.21
2022-11-07T19:03:50.536Z,12.27
2022-11-07T19:06:20.218Z,12.28
2022-11-07T19:08:47.920Z,12.33
2022-11-07T19:11:26.637Z,12.22
2022-11-07T19:13:54.017Z,12.24
2022-11-07T19:16:24.696Z,12.20
2022-11-07T19:18:52.205Z,12.25
2022-11-07T19:21:20.928Z,12.29
2022-11-07T19:23:48.881Z,12.26
2022-11-07T19:26:16.408Z,12.19
2022-11-07T19:28:43.297Z,12.17
2022-11-07T19:31:13.112Z,12.26
2022-11-07T19:33:41.582Z,12.26
2022-11-07T19:36:13.269Z,12.29
2022-11-07T19:38:40.148Z,12.20
2022-11-07T19:41:08.654Z,12.28
2022-11-07T19:43:36.098Z,12.08
2022-11-07T19:46:10.440Z,12.18
2022-11-07T19:48:37.403Z,12.27
2022-11-07T19:51:06.418Z,12.28
2022-11-07T19:53:33.262Z,12.34
2022-11-07T19:56:09.391Z,12.22
2022-11-07T19:58:37.419Z,12.20
2022-11-07T20:01:18.025Z,12.22
2022-11-07T20:03:50.288Z,12.22
2022-11-07T20:06:20.438Z,12.20
2022-11-07T20:08:47.396Z,12.14
2022-11-07T20:11:16.088Z,12.14
2022-11-07T20:13:44.085Z,12.16
2022-11-07T20:16:11.113Z,12.07
2022-11-07T20:18:38.841Z,12.15
2022-11-07T20:21:10.602Z,12.18
2022-11-07T20:23:37.372Z,12.17
2022-11-07T20:26:19.173Z,12.08
2022-11-07T20:28:47.392Z,12.07
2022-11-07T20:31:16.574Z,12.06
2022-11-07T20:33:43.543Z,12.00
2022-11-07T20:36:13.116Z,12.07
2022-11-07T20:38:40.883Z,12.04
2022-11-07T20:41:08.295Z,12.08
2022-11-07T20:43:35.168Z,12.05
2022-11-07T20:46:07.754Z,11.97
2022-11-07T20:48:35.472Z,12.03
2022-11-07T20:51:10.581Z,12.13
2022-11-07T20:53:38.945Z,12.14
2022-11-07T20:56:07.273Z,12.13
2022-11-07T20:58:37.377Z,12.08
2022-11-07T21:01:06.077Z,12.12
2022-11-07T21:03:33.783Z,12.11
2022-11-07T21:06:01.025Z,12.11
2022-11-07T21:08:30.668Z,12.11
2022-11-07T21:10:59.984Z,12.16
2022-11-07T21:13:26.817Z,12.17
2022-11-07T21:15:53.691Z,12.11
2022-11-07T21:18:20.494Z,12.12
2022-11-07T21:20:47.465Z,12.16
2022-11-07T21:23:16.072Z,12.21
2022-11-07T21:25:45.934Z,12.11
2022-11-07T21:28:17.895Z,12.21
2022-11-07T21:30:57.683Z,12.10
2022-11-07T21:33:24.734Z,12.18
2022-11-07T21:35:51.553Z,12.13
2022-11-07T21:38:18.342Z,12.16
2022-11-07T21:40:45.126Z,12.16
2022-11-07T21:43:12.341Z,12.18
2022-11-07T21:45:39.142Z,12.17
2022-11-07T21:48:06.177Z,12.17
2022-11-07T21:50:44.765Z,12.18
2022-11-07T21:53:12.277Z,12.03
2022-11-07T21:55:39.225Z,12.02
2022-11-07T21:58:06.035Z,12.09
2022-11-07T22:00:36.553Z,12.04
2022-11-07T22:03:04.828Z,12.05
2022-11-07T22:05:31.790Z,12.08
2022-11-07T22:07:58.724Z,12.07
2022-11-07T22:10:25.561Z,12.03
2022-11-07T22:12:52.995Z,12.09
2022-11-07T22:15:29.053Z,12.11
2022-11-07T22:17:55.828Z,12.11
2022-11-07T22:20:22.585Z,12.15
2022-11-07T22:22:49.434Z,12.15
2022-11-07T22:25:16.307Z,12.10
2022-11-07T22:27:43.089Z,12.08
2022-11-07T22:33:33.772Z,12.07
2022-11-07T22:36:02.185Z,12.03
2022-11-07T22:38:30.864Z,12.06
2022-11-07T22:40:57.718Z,12.02
2022-11-07T22:43:25.904Z,12.01
2022-11-07T22:45:53.035Z,11.97
2022-11-07T22:48:19.915Z,12.00
2022-11-07T22:50:46.727Z,12.04
2022-11-07T22:53:13.542Z,12.00
2022-11-07T22:55:40.412Z,12.00
2022-11-07T22:58:07.242Z,12.04
2022-11-07T23:00:34.235Z,11.94
2022-11-07T23:03:01.155Z,11.97
2022-11-07T23:05:28.129Z,11.92
2022-11-07T23:07:55.274Z,11.88
2022-11-07T23:10:22.132Z,11.93
2022-11-07T23:12:49.002Z,11.98
2022-11-07T23:15:15.834Z,11.89
2022-11-07T23:17:42.919Z,11.99
2022-11-07T23:20:11.039Z,11.94
2022-11-07T23:22:37.823Z,12.04
2022-11-07T23:25:05.050Z,12.02
2022-11-07T23:27:32.135Z,12.05
2022-11-07T23:29:58.933Z,12.06
2022-11-07T23:32:28.053Z,12.02
2022-11-07T23:34:55.595Z,12.00
2022-11-07T23:37:22.410Z,11.97
2022-11-07T23:39:49.335Z,12.01
2022-11-07T23:42:16.193Z,12.03
2022-11-07T23:45:03.276Z,12.02
2022-11-07T23:47:48.497Z,11.98
2022-11-07T23:50:34.170Z,12.01
2022-11-07T23:53:20.983Z,12.02
2022-11-07T23:55:47.825Z,12.03
2022-11-07T23:58:32.994Z,12.07
